»·PEaware :: WAT169 KRNO-KLAS

WAT169 :: KRNO-KLAS

FLIGHT INFORMATION

Flight Status: Arrived
Operator:
Walker Air Transport
More flights by this operator :: More flights under this callsign
Pilot: Marty P. (27464)
Aircraft: BEECH AIRCRAFT SUPER KING AIR 350
(B350)
More flights by this aircraft type
Origin: KRNO Reno/Tahoe Intl
United States
Destination: KLAS McCarran Intl
United States
More flights between these airports :: More routes between these airports
Route: FMG8 FMG J92 BTY SUNST4
File this flight plan on PilotEdge
Remarks:
Altitude:
(Current/Filed)
33,000ft
Speed:
(Current/Filed)
220kts
Departed: 10-Oct-20 12:15 PM
Arrived: 10-Oct-20 01:27 PM
Distance/Time
Traveled:
299nm/1:12
Distance/Time
To Go:
Arrived

Flight Plot

Page will automatically refresh every two minutes.

Flight plan parsing failed; only flown route is shown


Map Options




Map Legend


Flown Route
Filed Route
Departure Airport
Arrival Airport
Navaid (VOR, NDB)
Fix

Horizontal Profiles

Position Reports

Time Latitude Longitude Heading Altitude Ground
Speed
10-Oct-20 11:37 39.502992 -119.773623 180 4420ft 0kts
10-Oct-20 11:38 39.502992 -119.773623 180 4420ft 0kts
10-Oct-20 11:39 39.502992 -119.773623 180 4420ft 0kts
10-Oct-20 11:40 39.502992 -119.773623 180 4420ft 0kts
10-Oct-20 11:41 39.502992 -119.773623 180 4420ft 0kts
10-Oct-20 11:42 39.502992 -119.773623 180 4420ft 0kts
10-Oct-20 11:43 39.502992 -119.773623 180 4420ft 0kts
10-Oct-20 11:44 39.502992 -119.773623 180 4420ft 0kts
10-Oct-20 11:45 39.502992 -119.773623 180 4420ft 0kts
10-Oct-20 11:46 39.502992 -119.773623 180 4420ft 0kts
10-Oct-20 11:47 39.502992 -119.773623 179 4420ft 0kts
10-Oct-20 11:48 39.503256 -119.773622 180 4420ft 2kts
10-Oct-20 11:49 39.503738 -119.773742 104 4420ft 1kts
10-Oct-20 11:50 39.503744 -119.773815 90 4420ft 0kts
10-Oct-20 11:51 39.503744 -119.773815 90 4420ft 0kts
10-Oct-20 11:52 39.503744 -119.773815 90 4420ft 0kts
10-Oct-20 11:53 39.503744 -119.773815 90 4420ft 0kts
10-Oct-20 11:54 39.503744 -119.773816 90 4420ft 0kts
10-Oct-20 11:55 39.503744 -119.773816 90 4420ft 0kts
10-Oct-20 12:04 39.503084 -119.773531 4 4420ft 0kts
10-Oct-20 12:05 39.503084 -119.773531 4 4420ft 0kts
10-Oct-20 12:06 39.503084 -119.773531 4 4420ft 0kts
10-Oct-20 12:07 39.503084 -119.773531 4 4420ft 0kts
10-Oct-20 12:08 39.503741 -119.773037 88 4420ft 7kts
10-Oct-20 12:09 39.503753 -119.771887 73 4420ft 4kts
10-Oct-20 12:10 39.506360 -119.771507 0 4420ft 14kts
10-Oct-20 12:11 39.509494 -119.771509 0 4420ft 14kts
10-Oct-20 12:12 39.513752 -119.770822 89 4420ft 8kts
10-Oct-20 12:13 39.513715 -119.769729 110 4420ft 8kts
10-Oct-20 12:14 39.505293 -119.769243 180 4420ft 107kts
10-Oct-20 12:15 39.462545 -119.766899 176 5195ft 187kts
10-Oct-20 12:16 39.413394 -119.754665 122 7061ft 189kts
10-Oct-20 12:17 39.440053 -119.708759 23 8740ft 186kts
10-Oct-20 12:18 39.487739 -119.680867 21 10421ft 190kts
10-Oct-20 12:19 39.526660 -119.641275 97 12158ft 197kts
10-Oct-20 12:20 39.486657 -119.598860 136 13926ft 194kts
10-Oct-20 12:21 39.447907 -119.550041 135 15729ft 193kts
10-Oct-20 12:22 39.409745 -119.501636 134 17634ft 192kts
10-Oct-20 12:23 39.371475 -119.453176 133 19414ft 198kts
10-Oct-20 12:24 39.325500 -119.395068 133 19411ft 256kts
10-Oct-20 12:25 39.271374 -119.326800 134 19400ft 284kts
10-Oct-20 12:26 39.217062 -119.258529 133 21538ft 210kts
10-Oct-20 12:27 39.178258 -119.209696 132 23587ft 198kts
10-Oct-20 12:28 39.138592 -119.159932 132 25405ft 202kts
10-Oct-20 12:29 39.098194 -119.109378 133 27207ft 205kts
10-Oct-20 12:30 39.057039 -119.057963 133 28754ft 208kts
10-Oct-20 12:31 39.015318 -119.005945 134 29845ft 214kts
10-Oct-20 12:32 38.972874 -118.953094 134 31144ft 213kts
10-Oct-20 12:33 38.930132 -118.899965 135 32253ft 214kts
10-Oct-20 12:34 38.887157 -118.846643 135 33197ft 215kts
10-Oct-20 12:35 38.840855 -118.789320 135 33427ft 258kts
10-Oct-20 12:36 38.784005 -118.719113 135 33404ft 306kts
10-Oct-20 12:37 38.720779 -118.641181 135 33391ft 323kts
10-Oct-20 12:38 38.654278 -118.559421 135 33389ft 338kts
10-Oct-20 12:39 38.585533 -118.475129 135 33387ft 347kts
10-Oct-20 12:40 38.515244 -118.389191 135 33383ft 349kts
10-Oct-20 12:41 38.445530 -118.304195 136 33382ft 346kts
10-Oct-20 12:42 38.375853 -118.219483 136 33386ft 344kts
10-Oct-20 12:43 38.306664 -118.135597 136 33407ft 342kts
10-Oct-20 12:44 38.237623 -118.052123 136 33427ft 342kts
10-Oct-20 12:46 38.168536 -117.968821 136 33419ft 343kts
10-Oct-20 12:47 38.099184 -117.885433 136 33409ft 344kts
10-Oct-20 12:48 38.029327 -117.801665 136 33403ft 345kts
10-Oct-20 12:49 37.953435 -117.727232 145 33401ft 345kts
10-Oct-20 12:50 37.874298 -117.658838 145 33400ft 345kts
10-Oct-20 12:51 37.794955 -117.590400 145 33389ft 345kts
10-Oct-20 12:52 37.715629 -117.522158 145 33384ft 345kts
10-Oct-20 12:53 37.636290 -117.454083 145 33384ft 345kts
10-Oct-20 12:54 37.556654 -117.385932 145 33384ft 346kts
10-Oct-20 12:55 37.477042 -117.317983 146 33381ft 346kts
10-Oct-20 12:56 37.397666 -117.250414 146 33379ft 345kts
10-Oct-20 12:57 37.318068 -117.182822 146 33384ft 345kts
10-Oct-20 12:58 37.238733 -117.115632 146 33387ft 345kts
10-Oct-20 12:59 37.159158 -117.048412 146 33388ft 345kts
10-Oct-20 13:00 37.079315 -116.981152 146 32950ft 353kts
10-Oct-20 13:01 36.999009 -116.913664 146 31446ft 340kts
10-Oct-20 13:02 36.922711 -116.849702 147 29927ft 324kts
10-Oct-20 13:02 36.859902 -116.797176 147 28723ft 338kts
10-Oct-20 13:04 36.770480 -116.710712 129 27021ft 350kts
10-Oct-20 13:04 36.720328 -116.633356 131 25771ft 341kts
10-Oct-20 13:05 36.658759 -116.545453 131 24271ft 333kts
10-Oct-20 13:06 36.598288 -116.459597 132 22792ft 334kts
10-Oct-20 13:07 36.535767 -116.371059 131 21345ft 352kts
10-Oct-20 13:08 36.472177 -116.281250 132 21181ft 339kts
10-Oct-20 13:09 36.409466 -116.192939 132 20103ft 343kts
10-Oct-20 13:10 36.347047 -116.105265 132 17979ft 339kts
10-Oct-20 13:11 36.286215 -116.019991 132 16175ft 308kts
10-Oct-20 13:12 36.229912 -115.941299 132 16265ft 303kts
10-Oct-20 13:13 36.185872 -115.854437 111 16266ft 297kts
10-Oct-20 13:14 36.155511 -115.759986 111 15925ft 295kts
10-Oct-20 13:15 36.125301 -115.666131 111 15393ft 292kts
10-Oct-20 13:16 36.095571 -115.574107 111 14329ft 283kts
10-Oct-20 13:17 36.066653 -115.484881 111 11923ft 277kts
10-Oct-20 13:18 36.038171 -115.397240 110 11264ft 275kts
10-Oct-20 13:19 36.026024 -115.306101 93 9454ft 267kts
10-Oct-20 13:20 36.019586 -115.217021 94 9296ft 266kts
10-Oct-20 13:21 36.031919 -115.127335 39 8063ft 269kts
10-Oct-20 13:22 36.094996 -115.092699 22 6201ft 232kts
10-Oct-20 13:23 36.145190 -115.114072 295 3743ft 201kts
10-Oct-20 13:24 36.120042 -115.145751 198 2696ft 133kts
10-Oct-20 13:25 36.089245 -115.162288 206 2127ft 83kts
10-Oct-20 13:26 36.083737 -115.166773 230 2153ft 3kts
10-Oct-20 13:27 36.083263 -115.168227 23 2159ft 13kts
10-Oct-20 13:28 36.084863 -115.168029 204 2156ft 12kts
10-Oct-20 13:29 36.081825 -115.170230 155 2167ft 1kts
10-Oct-20 13:30 36.081691 -115.170240 191 2168ft 0kts
10-Oct-20 13:31 36.081691 -115.170240 191 2168ft 0kts

Navigation Log

Ident Type
Flight plan parsing failed, navigation log unavailable